»·PEaware :: EJA827 KLAS-KLAX

EJA827 :: KLAS-KLAX

FLIGHT INFORMATION

Flight Status: Arrived
Operator:
Netjets Aviation
More flights by this operator :: More flights under this callsign
Pilot: Anonymous 31865 (31865)
Aircraft: GULFSTREAM G-1159C GULFSTREAM 4
(GLF4)
More flights by this aircraft type
Origin: KLAS McCarran Intl
United States
Destination: KLAX Los Angeles Intl
United States
More flights between these airports :: More routes between these airports
Route: BOACH8 RIKII SHTNR ANJILL4
File this flight plan on PilotEdge
Remarks:
Altitude:
(Current/Filed)
30,000ft
Speed:
(Current/Filed)
475kts
Departed: 21-Nov-20 05:40 PM
Arrived: 21-Nov-20 06:24 PM
Distance/Time
Traveled:
205nm/0:43
Distance/Time
To Go:
Arrived

Flight Plot

Page will automatically refresh every two minutes.

Flight plan parsing failed; only flown route is shown


Map Options




Map Legend


Flown Route
Filed Route
Departure Airport
Arrival Airport
Navaid (VOR, NDB)
Fix

Horizontal Profiles

Position Reports

Time Latitude Longitude Heading Altitude Ground
Speed
21-Nov-20 17:21 36.080499 -115.170911 125 2189ft 0kts
21-Nov-20 17:22 36.080499 -115.170911 125 2189ft 0kts
21-Nov-20 17:23 36.080499 -115.170911 125 2189ft 0kts
21-Nov-20 17:24 36.080499 -115.170911 125 2189ft 0kts
21-Nov-20 17:25 36.080499 -115.170911 125 2189ft 0kts
21-Nov-20 17:26 36.080499 -115.170911 125 2189ft 0kts
21-Nov-20 17:27 36.080499 -115.170911 125 2189ft 0kts
21-Nov-20 17:28 36.080499 -115.170911 125 2189ft 0kts
21-Nov-20 17:29 36.080499 -115.170911 125 2189ft 0kts
21-Nov-20 17:30 36.080499 -115.170911 125 2189ft 0kts
21-Nov-20 17:31 36.080428 -115.170605 81 2189ft 4kts
21-Nov-20 17:32 36.081910 -115.168996 24 2189ft 8kts
21-Nov-20 17:33 36.084880 -115.167291 24 2189ft 13kts
21-Nov-20 17:34 36.088868 -115.165012 25 2189ft 16kts
21-Nov-20 17:35 36.092949 -115.162679 24 2189ft 16kts
21-Nov-20 17:36 36.097233 -115.160228 24 2189ft 15kts
21-Nov-20 17:37 36.099688 -115.158181 70 2189ft 7kts
21-Nov-20 17:38 36.099820 -115.157669 78 2189ft 4kts
21-Nov-20 17:39 36.096652 -115.158188 204 2189ft 75kts
21-Nov-20 17:40 36.054643 -115.182315 204 3548ft 212kts
21-Nov-20 17:41 36.000943 -115.236033 240 5540ft 274kts
21-Nov-20 17:42 35.951647 -115.303154 189 7619ft 283kts
21-Nov-20 17:43 35.871814 -115.313402 185 9836ft 294kts
21-Nov-20 17:44 35.782045 -115.306516 174 12389ft 367kts
21-Nov-20 17:45 35.676239 -115.295116 181 16400ft 400kts
21-Nov-20 17:46 35.560609 -115.299337 184 19180ft 430kts
21-Nov-20 17:47 35.451873 -115.341077 214 19192ft 412kts
21-Nov-20 17:48 35.353091 -115.412607 214 19425ft 410kts
21-Nov-20 17:50 35.252503 -115.485513 215 21860ft 451kts
21-Nov-20 17:51 35.143070 -115.564534 217 25267ft 463kts
21-Nov-20 17:52 35.052156 -115.670670 232 26199ft 450kts
21-Nov-20 17:53 34.966765 -115.779675 231 26208ft 437kts
21-Nov-20 17:54 34.883836 -115.885162 230 26209ft 426kts
21-Nov-20 17:55 34.805292 -115.984597 230 26200ft 367kts
21-Nov-20 17:56 34.734433 -116.074751 230 26209ft 370kts
21-Nov-20 17:57 34.662485 -116.166308 230 26206ft 376kts
21-Nov-20 17:58 34.590976 -116.257069 230 26202ft 373kts
21-Nov-20 17:59 34.519614 -116.347390 230 26205ft 369kts
21-Nov-20 18:00 34.448276 -116.437460 230 26209ft 370kts
21-Nov-20 18:01 34.391843 -116.538283 246 25579ft 359kts
21-Nov-20 18:02 34.347280 -116.646030 246 24995ft 357kts
21-Nov-20 18:03 34.303803 -116.753386 246 23878ft 353kts
21-Nov-20 18:04 34.261098 -116.859377 246 22276ft 347kts
21-Nov-20 18:04 34.226135 -116.945920 245 20825ft 342kts
21-Nov-20 18:06 34.187462 -117.070738 252 18653ft 338kts
21-Nov-20 18:07 34.158273 -117.178019 252 16858ft 332kts
21-Nov-20 18:07 34.133905 -117.266628 252 15664ft 332kts
21-Nov-20 18:09 34.100728 -117.388809 253 13948ft 319kts
21-Nov-20 18:09 34.079734 -117.472445 253 12676ft 315kts
21-Nov-20 18:11 34.041977 -117.585314 247 11317ft 307kts
21-Nov-20 18:11 34.015237 -117.660179 247 10366ft 281kts
21-Nov-20 18:12 34.000153 -117.752197 262 9279ft 277kts
21-Nov-20 18:13 33.991314 -117.836757 262 7970ft 236kts
21-Nov-20 18:14 33.983602 -117.914754 262 7003ft 232kts
21-Nov-20 18:15 33.977230 -117.993368 261 6945ft 239kts
21-Nov-20 18:16 33.969107 -118.069178 261 5486ft 212kts
21-Nov-20 18:17 33.962096 -118.138763 262 4248ft 204kts
21-Nov-20 18:18 33.955563 -118.203714 262 3156ft 184kts
21-Nov-20 18:19 33.949473 -118.263928 263 2116ft 172kts
21-Nov-20 18:20 33.944383 -118.312822 263 1315ft 139kts
21-Nov-20 18:21 33.939864 -118.357681 263 540ft 131kts
21-Nov-20 18:22 33.935949 -118.396512 262 133ft 50kts
21-Nov-20 18:23 33.934341 -118.402051 155 133ft 6kts
21-Nov-20 18:24 33.934428 -118.399359 83 133ft 13kts
21-Nov-20 18:25 33.934924 -118.394539 82 133ft 8kts
21-Nov-20 18:26 33.933989 -118.394657 262 133ft 0kts

Navigation Log

Ident Type
Flight plan parsing failed, navigation log unavailable